Chitose — JD2925 — position and weather

sailwx.info

Track history (hours):
 
Tides and Currents Weather Stations Pressure Air Temp Water Temp Dewpoint Dewpoint Depression Visibility Wind Speed Wind Dir Waves Ship Positions

Chitose

Last reported at 2015-Jan-29 15:33 UTC. Time now 2015-Jan-29 16:24 UTC.
Position N 35°28' E 139°42'.

Length 33 m; draft 3.8 m.

Type: Tug. MMSI: 431000953.

Date/timePositionNaut miles runAvg speedWind from/ knotsBaromVisibWave heightAir tempDewpointWater temp
2015-Jan-29 15:33N 35°28' E 139°42'1 1.1
2015-Jan-29 14:33N 35°26' E 139°42'0 0.5
2015-Jan-29 13:33N 35°27' E 139°42'0 0.1
2015-Jan-29 12:33N 35°27' E 139°42'1 1.5
2015-Jan-29 11:33N 35°27' E 139°40'1 0.9
2015-Jan-29 10:33N 35°28' E 139°40'1 1.3
2015-Jan-29 09:33N 35°28' E 139°42'1 0.8
2015-Jan-29 08:33N 35°28' E 139°41'1 1.5
2015-Jan-29 07:33N 35°27' E 139°40'0 0.0
2015-Jan-29 06:33N 35°27' E 139°40'0 0.0
2015-Jan-29 05:33N 35°27' E 139°40'0 0.0
2015-Jan-29 04:33N 35°27' E 139°40'0 0.0
2015-Jan-29 03:33N 35°27' E 139°40'0 0.0
2015-Jan-29 02:33N 35°27' E 139°40'0 0.0
2015-Jan-29 01:33N 35°27' E 139°40'0 0.0
2015-Jan-29 00:33N 35°27' E 139°40'0 0.0
2015-Jan-28 23:33N 35°27' E 139°40'0 0.0
2015-Jan-28 22:33N 35°27' E 139°40'0 0.0
2015-Jan-28 21:33N 35°27' E 139°40'0 0.0
2015-Jan-28 20:33N 35°27' E 139°40'0 0.0
2015-Jan-28 06:33N 35°27' E 139°40'0 0.0
2015-Jan-28 05:33N 35°27' E 139°40'0 0.0
2015-Jan-28 04:33N 35°27' E 139°40'0 0.0
2015-Jan-28 03:33N 35°27' E 139°40'1 0.8
2015-Jan-28 02:33N 35°27' E 139°41'0 0.4
2015-Jan-28 01:33N 35°28' E 139°40'2 2.0
2015-Jan-28 00:33N 35°26' E 139°42'2 2.3
2015-Jan-27 23:33N 35°27' E 139°40'0 0.0
2015-Jan-27 22:33N 35°27' E 139°40'0 0.0
2015-Jan-27 05:30N 35°27' E 139°40'1 1.3
2015-Jan-27 04:34N 35°26' E 139°41'1 1.4
2015-Jan-27 03:34N 35°26' E 139°42'3 2.5
2015-Jan-27 02:33N 35°27' E 139°40'0 0.0
2015-Jan-27 01:34N 35°27' E 139°40'0 0.0
2015-Jan-27 00:34N 35°27' E 139°40'1 1.5
2015-Jan-26 23:34N 35°28' E 139°41'1 0.6
2015-Jan-26 22:34N 35°28' E 139°40'1 0.8
2015-Jan-26 21:34N 35°27' E 139°40'0 0.0
2015-Jan-26 09:14N 35°27' E 139°40'1 1.9
2015-Jan-26 08:33N 35°26' E 139°41'0 0.1
2015-Jan-26 07:33N 35°26' E 139°41'1 1.3
2015-Jan-26 06:33N 35°27' E 139°40'0 0.0
2015-Jan-26 04:33N 35°27' E 139°40'1 1.2
2015-Jan-26 03:33N 35°26' E 139°41'1 1.0
2015-Jan-26 02:33N 35°27' E 139°42'0 0.0
2015-Jan-26 01:33N 35°27' E 139°42'0 0.0
2015-Jan-26 00:33N 35°27' E 139°42'1 1.0
2015-Jan-25 23:33N 35°26' E 139°41'1 1.0
2015-Jan-25 22:33N 35°26' E 139°42'0 0.3
2015-Jan-25 21:33N 35°26' E 139°42'2 2.0
2015-Jan-25 20:33N 35°27' E 139°40'0 0.0
2015-Jan-25 19:34N 35°27' E 139°40'0 0.0
2015-Jan-25 18:33N 35°27' E 139°40'0 0.0
2015-Jan-25 17:33N 35°27' E 139°40'0 0.0
2015-Jan-25 16:33N 35°27' E 139°40'0 0.0
2015-Jan-25 15:34N 35°27' E 139°40'0 0.0
2015-Jan-25 14:33N 35°27' E 139°40'0 0.0
2015-Jan-25 13:33N 35°27' E 139°40'0 0.0
2015-Jan-25 12:33N 35°27' E 139°40'0 0.0
2015-Jan-25 11:34N 35°27' E 139°40'0 0.0
2015-Jan-25 10:33N 35°27' E 139°40'0 0.0
2015-Jan-25 09:33N 35°27' E 139°40'0 0.0
2015-Jan-25 08:33N 35°27' E 139°40'2 1.5
2015-Jan-25 07:33N 35°27' E 139°41'0 0.4
2015-Jan-25 06:34N 35°27' E 139°41'1 0.9
2015-Jan-25 05:34N 35°27' E 139°40'1 1.0
2015-Jan-25 04:33N 35°28' E 139°40'0 0.0
2015-Jan-25 03:34N 35°28' E 139°40'0 0.0
2015-Jan-25 02:33N 35°28' E 139°40'3 2.7
2015-Jan-25 01:34N 35°25' E 139°42'3 3.4
2015-Jan-25 00:34N 35°24' E 139°38'1 1.4
2015-Jan-24 23:34N 35°24' E 139°40'3 3.2
2015-Jan-24 22:34N 35°27' E 139°40'0 0.0
2015-Jan-24 21:33N 35°27' E 139°40'0 0.0
2015-Jan-24 20:34N 35°27' E 139°40'0 0.0
2015-Jan-23 23:22N 35°27' E 139°40'7 8.9
2015-Jan-23 22:33N 35°30' E 139°48'1 0.8
2015-Jan-23 21:33N 35°29' E 139°47'6 5.6
2015-Jan-23 20:33N 35°27' E 139°41'0 0.3
2015-Jan-23 19:33N 35°26' E 139°41'0 0.1
2015-Jan-23 18:34N 35°26' E 139°41'1 1.0
2015-Jan-23 17:33N 35°27' E 139°42'3 2.9
2015-Jan-23 16:33N 35°29' E 139°45'2 2.1
2015-Jan-23 15:33N 35°27' E 139°46'2 2.1
2015-Jan-23 14:33N 35°28' E 139°44'3 2.8
2015-Jan-23 13:34N 35°26' E 139°41'4 4.0
2015-Jan-23 12:34N 35°28' E 139°45'0 0.1
2015-Jan-23 11:33N 35°28' E 139°45'0 0.0
2015-Jan-23 10:33N 35°28' E 139°45'0 0.0
2015-Jan-23 09:33N 35°28' E 139°45'2 2.4
2015-Jan-23 08:33N 35°31' E 139°45'6 5.5
2015-Jan-23 07:33N 35°27' E 139°40'1 0.7
2015-Jan-23 06:33N 35°28' E 139°40'0 0.0
2015-Jan-23 05:33N 35°28' E 139°40'0 0.0
2015-Jan-23 04:33N 35°28' E 139°40'2 1.8
2015-Jan-23 03:33N 35°26' E 139°42'2 2.0
2015-Jan-23 02:33N 35°27' E 139°40'0 0.0
2015-Jan-23 01:33N 35°27' E 139°40'0 0.0
2015-Jan-23 00:33N 35°27' E 139°40'0 0.0
2015-Jan-22 23:34N 35°27' E 139°40'0 0.0
2015-Jan-22 22:33N 35°27' E 139°40'0 0.0
2015-Jan-22 21:33N 35°27' E 139°40'0 0.0
2015-Jan-22 20:33N 35°27' E 139°40'0 0.0
2015-Jan-22 07:22N 35°27' E 139°40'1 1.5
2015-Jan-22 06:33N 35°28' E 139°40'4 3.9
2015-Jan-22 05:34N 35°25' E 139°43'1 1.2
2015-Jan-22 04:33N 35°26' E 139°42'2 2.2
2015-Jan-22 03:33N 35°27' E 139°39'0 0.0
2015-Jan-22 02:33N 35°27' E 139°39'0 0.0
2015-Jan-22 01:33N 35°27' E 139°39'2 2.0
2015-Jan-22 00:33N 35°27' E 139°42'5 4.7
2015-Jan-21 23:33N 35°31' E 139°45'6 8.3
2015-Jan-21 22:50N 35°27' E 139°39'0 0.8
2015-Jan-21 22:46N 35°27' E 139°40'0 0.0
2015-Jan-21 22:33N 35°27' E 139°40'0 0.0
2015-Jan-21 07:09N 35°27' E 139°40'0 0.0
2015-Jan-21 06:33N 35°27' E 139°40'0 0.0
2015-Jan-21 05:33N 35°27' E 139°40'1 0.9
2015-Jan-21 04:33N 35°27' E 139°41'2 2.0
2015-Jan-21 03:33N 35°26' E 139°43'3 2.9
2015-Jan-21 02:33N 35°27' E 139°39'0 0.0
2015-Jan-21 01:33N 35°27' E 139°39'0 0.4
2015-Jan-21 00:33N 35°27' E 139°39'1 0.6
2015-Jan-20 23:33N 35°27' E 139°40'0 0.0
2015-Jan-20 22:33N 35°27' E 139°40'0 0.0
2015-Jan-20 21:34N 35°27' E 139°40'0 0.0
2015-Jan-20 20:33N 35°27' E 139°40'0 0.0
2015-Jan-20 00:34N 35°27' E 139°39'0 0.1
2015-Jan-19 23:33N 35°27' E 139°39'3 2.6
2015-Jan-19 22:34N 35°26' E 139°42'2 1.9
2015-Jan-19 21:33N 35°27' E 139°40'1 0.7
2015-Jan-19 20:33N 35°27' E 139°40'0 0.0
2015-Jan-19 19:33N 35°27' E 139°40'0 0.0
2015-Jan-19 18:33N 35°27' E 139°40'0 0.0
2015-Jan-19 17:33N 35°27' E 139°40'0 0.0
2015-Jan-19 16:33N 35°27' E 139°40'  
Track history (hours):
 
Tides and Currents Weather Stations Pressure Air Temp Water Temp Dewpoint Dewpoint Depression Visibility Wind Speed Wind Dir Waves Ship Positions

Chitose

Last reported at 2015-Jan-29 15:33 UTC. Time now 2015-Jan-29 16:24 UTC.
Position N 35°28' E 139°42'.

Length 33 m; draft 3.8 m.

Type: Tug. MMSI: 431000953.

Date/timePositionNaut miles runAvg speedWind from/ knotsBaromVisibWave heightAir tempDewpointWater temp
2015-Jan-29 15:33N 35°28' E 139°42'1 1.1
2015-Jan-29 14:33N 35°26' E 139°42'0 0.5
2015-Jan-29 13:33N 35°27' E 139°42'0 0.1
2015-Jan-29 12:33N 35°27' E 139°42'1 1.5
2015-Jan-29 11:33N 35°27' E 139°40'1 0.9
2015-Jan-29 10:33N 35°28' E 139°40'1 1.3
2015-Jan-29 09:33N 35°28' E 139°42'1 0.8
2015-Jan-29 08:33N 35°28' E 139°41'1 1.5
2015-Jan-29 07:33N 35°27' E 139°40'0 0.0
2015-Jan-29 06:33N 35°27' E 139°40'0 0.0
2015-Jan-29 05:33N 35°27' E 139°40'0 0.0
2015-Jan-29 04:33N 35°27' E 139°40'0 0.0
2015-Jan-29 03:33N 35°27' E 139°40'0 0.0
2015-Jan-29 02:33N 35°27' E 139°40'0 0.0
2015-Jan-29 01:33N 35°27' E 139°40'0 0.0
2015-Jan-29 00:33N 35°27' E 139°40'0 0.0
2015-Jan-28 23:33N 35°27' E 139°40'0 0.0
2015-Jan-28 22:33N 35°27' E 139°40'0 0.0
2015-Jan-28 21:33N 35°27' E 139°40'0 0.0
2015-Jan-28 20:33N 35°27' E 139°40'0 0.0
2015-Jan-28 06:33N 35°27' E 139°40'0 0.0
2015-Jan-28 05:33N 35°27' E 139°40'0 0.0
2015-Jan-28 04:33N 35°27' E 139°40'0 0.0
2015-Jan-28 03:33N 35°27' E 139°40'1 0.8
2015-Jan-28 02:33N 35°27' E 139°41'0 0.4
2015-Jan-28 01:33N 35°28' E 139°40'2 2.0
2015-Jan-28 00:33N 35°26' E 139°42'2 2.3
2015-Jan-27 23:33N 35°27' E 139°40'0 0.0
2015-Jan-27 22:33N 35°27' E 139°40'0 0.0
2015-Jan-27 05:30N 35°27' E 139°40'1 1.3
2015-Jan-27 04:34N 35°26' E 139°41'1 1.4
2015-Jan-27 03:34N 35°26' E 139°42'3 2.5
2015-Jan-27 02:33N 35°27' E 139°40'0 0.0
2015-Jan-27 01:34N 35°27' E 139°40'0 0.0
2015-Jan-27 00:34N 35°27' E 139°40'1 1.5
2015-Jan-26 23:34N 35°28' E 139°41'1 0.6
2015-Jan-26 22:34N 35°28' E 139°40'1 0.8
2015-Jan-26 21:34N 35°27' E 139°40'0 0.0
2015-Jan-26 09:14N 35°27' E 139°40'1 1.9
2015-Jan-26 08:33N 35°26' E 139°41'0 0.1
2015-Jan-26 07:33N 35°26' E 139°41'1 1.3
2015-Jan-26 06:33N 35°27' E 139°40'0 0.0
2015-Jan-26 04:33N 35°27' E 139°40'1 1.2
2015-Jan-26 03:33N 35°26' E 139°41'1 1.0
2015-Jan-26 02:33N 35°27' E 139°42'0 0.0
2015-Jan-26 01:33N 35°27' E 139°42'0 0.0
2015-Jan-26 00:33N 35°27' E 139°42'1 1.0
2015-Jan-25 23:33N 35°26' E 139°41'1 1.0
2015-Jan-25 22:33N 35°26' E 139°42'0 0.3
2015-Jan-25 21:33N 35°26' E 139°42'2 2.0
2015-Jan-25 20:33N 35°27' E 139°40'0 0.0
2015-Jan-25 19:34N 35°27' E 139°40'0 0.0
2015-Jan-25 18:33N 35°27' E 139°40'0 0.0
2015-Jan-25 17:33N 35°27' E 139°40'0 0.0
2015-Jan-25 16:33N 35°27' E 139°40'0 0.0
2015-Jan-25 15:34N 35°27' E 139°40'0 0.0
2015-Jan-25 14:33N 35°27' E 139°40'0 0.0
2015-Jan-25 13:33N 35°27' E 139°40'0 0.0
2015-Jan-25 12:33N 35°27' E 139°40'0 0.0
2015-Jan-25 11:34N 35°27' E 139°40'0 0.0
2015-Jan-25 10:33N 35°27' E 139°40'0 0.0
2015-Jan-25 09:33N 35°27' E 139°40'0 0.0
2015-Jan-25 08:33N 35°27' E 139°40'2 1.5
2015-Jan-25 07:33N 35°27' E 139°41'0 0.4
2015-Jan-25 06:34N 35°27' E 139°41'1 0.9
2015-Jan-25 05:34N 35°27' E 139°40'1 1.0
2015-Jan-25 04:33N 35°28' E 139°40'0 0.0
2015-Jan-25 03:34N 35°28' E 139°40'0 0.0
2015-Jan-25 02:33N 35°28' E 139°40'3 2.7
2015-Jan-25 01:34N 35°25' E 139°42'3 3.4
2015-Jan-25 00:34N 35°24' E 139°38'1 1.4
2015-Jan-24 23:34N 35°24' E 139°40'3 3.2
2015-Jan-24 22:34N 35°27' E 139°40'0 0.0
2015-Jan-24 21:33N 35°27' E 139°40'0 0.0
2015-Jan-24 20:34N 35°27' E 139°40'0 0.0
2015-Jan-23 23:22N 35°27' E 139°40'7 8.9
2015-Jan-23 22:33N 35°30' E 139°48'1 0.8
2015-Jan-23 21:33N 35°29' E 139°47'6 5.6
2015-Jan-23 20:33N 35°27' E 139°41'0 0.3
2015-Jan-23 19:33N 35°26' E 139°41'0 0.1
2015-Jan-23 18:34N 35°26' E 139°41'1 1.0
2015-Jan-23 17:33N 35°27' E 139°42'3 2.9
2015-Jan-23 16:33N 35°29' E 139°45'2 2.1
2015-Jan-23 15:33N 35°27' E 139°46'2 2.1
2015-Jan-23 14:33N 35°28' E 139°44'3 2.8
2015-Jan-23 13:34N 35°26' E 139°41'4 4.0
2015-Jan-23 12:34N 35°28' E 139°45'0 0.1
2015-Jan-23 11:33N 35°28' E 139°45'0 0.0
2015-Jan-23 10:33N 35°28' E 139°45'0 0.0
2015-Jan-23 09:33N 35°28' E 139°45'2 2.4
2015-Jan-23 08:33N 35°31' E 139°45'6 5.5
2015-Jan-23 07:33N 35°27' E 139°40'1 0.7
2015-Jan-23 06:33N 35°28' E 139°40'0 0.0
2015-Jan-23 05:33N 35°28' E 139°40'0 0.0
2015-Jan-23 04:33N 35°28' E 139°40'2 1.8
2015-Jan-23 03:33N 35°26' E 139°42'2 2.0
2015-Jan-23 02:33N 35°27' E 139°40'0 0.0
2015-Jan-23 01:33N 35°27' E 139°40'0 0.0
2015-Jan-23 00:33N 35°27' E 139°40'0 0.0
2015-Jan-22 23:34N 35°27' E 139°40'0 0.0
2015-Jan-22 22:33N 35°27' E 139°40'0 0.0
2015-Jan-22 21:33N 35°27' E 139°40'0 0.0
2015-Jan-22 20:33N 35°27' E 139°40'0 0.0
2015-Jan-22 07:22N 35°27' E 139°40'1 1.5
2015-Jan-22 06:33N 35°28' E 139°40'4 3.9
2015-Jan-22 05:34N 35°25' E 139°43'1 1.2
2015-Jan-22 04:33N 35°26' E 139°42'2 2.2
2015-Jan-22 03:33N 35°27' E 139°39'0 0.0
2015-Jan-22 02:33N 35°27' E 139°39'0 0.0
2015-Jan-22 01:33N 35°27' E 139°39'2 2.0
2015-Jan-22 00:33N 35°27' E 139°42'5 4.7
2015-Jan-21 23:33N 35°31' E 139°45'6 8.3
2015-Jan-21 22:50N 35°27' E 139°39'0 0.8
2015-Jan-21 22:46N 35°27' E 139°40'0 0.0
2015-Jan-21 22:33N 35°27' E 139°40'0 0.0
2015-Jan-21 07:09N 35°27' E 139°40'0 0.0
2015-Jan-21 06:33N 35°27' E 139°40'0 0.0
2015-Jan-21 05:33N 35°27' E 139°40'1 0.9
2015-Jan-21 04:33N 35°27' E 139°41'2 2.0
2015-Jan-21 03:33N 35°26' E 139°43'3 2.9
2015-Jan-21 02:33N 35°27' E 139°39'0 0.0
2015-Jan-21 01:33N 35°27' E 139°39'0 0.4
2015-Jan-21 00:33N 35°27' E 139°39'1 0.6
2015-Jan-20 23:33N 35°27' E 139°40'0 0.0
2015-Jan-20 22:33N 35°27' E 139°40'0 0.0
2015-Jan-20 21:34N 35°27' E 139°40'0 0.0
2015-Jan-20 20:33N 35°27' E 139°40'0 0.0
2015-Jan-20 00:34N 35°27' E 139°39'0 0.1
2015-Jan-19 23:33N 35°27' E 139°39'3 2.6
2015-Jan-19 22:34N 35°26' E 139°42'2 1.9
2015-Jan-19 21:33N 35°27' E 139°40'1 0.7
2015-Jan-19 20:33N 35°27' E 139°40'0 0.0
2015-Jan-19 19:33N 35°27' E 139°40'0 0.0
2015-Jan-19 18:33N 35°27' E 139°40'0 0.0
2015-Jan-19 17:33N 35°27' E 139°40'0 0.0
2015-Jan-19 16:33N 35°27' E 139°40'  

Dump ship's entire track history